sensor_id;sensor_type;location;lat;lon;timestamp;temperature;humidity
52725;DHT22;38621;52.830;6.914;2023-04-15T00:00:03;6.90;99.90
52725;DHT22;38621;52.830;6.914;2023-04-15T00:02:29;6.70;99.90
52725;DHT22;38621;52.830;6.914;2023-04-15T00:04:55;6.60;99.90
52725;DHT22;38621;52.830;6.914;2023-04-15T00:07:21;6.60;99.90
52725;DHT22;38621;52.830;6.914;2023-04-15T00:09:46;6.60;99.90
52725;DHT22;38621;52.830;6.914;2023-04-15T00:12:12;6.50;99.90
52725;DHT22;38621;52.830;6.914;2023-04-15T00:14:38;6.50;99.90
52725;DHT22;38621;52.830;6.914;2023-04-15T00:17:04;6.40;99.90
52725;DHT22;38621;52.830;6.914;2023-04-15T00:19:30;6.40;99.90
52725;DHT22;38621;52.830;6.914;2023-04-15T00:21:56;6.40;99.90
52725;DHT22;38621;52.830;6.914;2023-04-15T00:24:22;6.40;99.90
52725;DHT22;38621;52.830;6.914;2023-04-15T00:26:48;6.40;99.90
52725;DHT22;38621;52.830;6.914;2023-04-15T00:29:14;6.40;99.90
52725;DHT22;38621;52.830;6.914;2023-04-15T00:31:40;6.40;99.90
52725;DHT22;38621;52.830;6.914;2023-04-15T00:34:07;6.40;99.90
52725;DHT22;38621;52.830;6.914;2023-04-15T00:36:32;6.40;99.90
52725;DHT22;38621;52.830;6.914;2023-04-15T00:38:59;6.40;99.90
52725;DHT22;38621;52.830;6.914;2023-04-15T00:41:25;6.40;99.90
52725;DHT22;38621;52.830;6.914;2023-04-15T00:43:51;6.30;99.90
52725;DHT22;38621;52.830;6.914;2023-04-15T00:46:17;6.30;99.90
52725;DHT22;38621;52.830;6.914;2023-04-15T00:48:46;6.30;99.90
52725;DHT22;38621;52.830;6.914;2023-04-15T00:51:12;6.30;99.90
52725;DHT22;38621;52.830;6.914;2023-04-15T00:53:39;6.20;99.90
52725;DHT22;38621;52.830;6.914;2023-04-15T00:56:05;6.10;99.90
52725;DHT22;38621;52.830;6.914;2023-04-15T00:58:31;6.10;99.90
52725;DHT22;38621;52.830;6.914;2023-04-15T01:00:57;6.10;99.90
52725;DHT22;38621;52.830;6.914;2023-04-15T01:03:23;6.00;99.90
52725;DHT22;38621;52.830;6.914;2023-04-15T01:05:49;6.00;99.90
52725;DHT22;38621;52.830;6.914;2023-04-15T01:08:25;6.00;99.90
52725;DHT22;38621;52.830;6.914;2023-04-15T01:10:53;6.00;99.90
52725;DHT22;38621;52.830;6.914;2023-04-15T01:13:19;5.90;99.90
52725;DHT22;38621;52.830;6.914;2023-04-15T01:15:46;5.90;99.90
52725;DHT22;38621;52.830;6.914;2023-04-15T01:18:12;5.80;99.90
52725;DHT22;38621;52.830;6.914;2023-04-15T01:20:38;5.80;99.90
52725;DHT22;38621;52.830;6.914;2023-04-15T01:23:04;5.80;99.90
52725;DHT22;38621;52.830;6.914;2023-04-15T01:25:32;5.80;99.90
52725;DHT22;38621;52.830;6.914;2023-04-15T01:27:58;5.80;99.90
52725;DHT22;38621;52.830;6.914;2023-04-15T01:30:24;5.70;99.90
52725;DHT22;38621;52.830;6.914;2023-04-15T01:32:50;5.70;99.90
52725;DHT22;38621;52.830;6.914;2023-04-15T01:35:17;5.60;99.90
52725;DHT22;38621;52.830;6.914;2023-04-15T01:37:42;5.60;99.90
52725;DHT22;38621;52.830;6.914;2023-04-15T01:40:08;5.50;99.90
52725;DHT22;38621;52.830;6.914;2023-04-15T01:42:35;5.50;99.90
52725;DHT22;38621;52.830;6.914;2023-04-15T01:45:01;5.40;99.90
52725;DHT22;38621;52.830;6.914;2023-04-15T01:47:27;5.40;99.90
52725;DHT22;38621;52.830;6.914;2023-04-15T01:49:52;5.40;99.90
52725;DHT22;38621;52.830;6.914;2023-04-15T01:52:18;5.30;99.90
52725;DHT22;38621;52.830;6.914;2023-04-15T01:54:44;5.40;99.90
52725;DHT22;38621;52.830;6.914;2023-04-15T01:57:10;5.30;99.90
52725;DHT22;38621;52.830;6.914;2023-04-15T01:59:35;5.30;99.90
52725;DHT22;38621;52.830;6.914;2023-04-15T02:02:01;5.30;99.90
52725;DHT22;38621;52.830;6.914;2023-04-15T02:04:27;5.30;99.90
52725;DHT22;38621;52.830;6.914;2023-04-15T02:06:53;5.30;99.90
52725;DHT22;38621;52.830;6.914;2023-04-15T02:09:18;5.20;99.90
52725;DHT22;38621;52.830;6.914;2023-04-15T02:11:44;5.20;99.90
52725;DHT22;38621;52.830;6.914;2023-04-15T02:14:10;5.40;99.90
52725;DHT22;38621;52.830;6.914;2023-04-15T02:16:36;5.30;99.90
52725;DHT22;38621;52.830;6.914;2023-04-15T02:19:02;5.30;99.90
52725;DHT22;38621;52.830;6.914;2023-04-15T02:21:28;5.30;99.90
52725;DHT22;38621;52.830;6.914;2023-04-15T02:23:54;5.20;99.90
52725;DHT22;38621;52.830;6.914;2023-04-15T02:26:20;5.20;99.90
52725;DHT22;38621;52.830;6.914;2023-04-15T02:28:47;5.20;99.90
52725;DHT22;38621;52.830;6.914;2023-04-15T02:31:13;5.10;99.90
52725;DHT22;38621;52.830;6.914;2023-04-15T02:33:39;5.10;99.90
52725;DHT22;38621;52.830;6.914;2023-04-15T02:36:05;5.10;99.90
52725;DHT22;38621;52.830;6.914;2023-04-15T02:38:32;5.10;99.90
52725;DHT22;38621;52.830;6.914;2023-04-15T02:40:58;5.00;99.90
52725;DHT22;38621;52.830;6.914;2023-04-15T02:43:23;5.00;99.90
52725;DHT22;38621;52.830;6.914;2023-04-15T02:45:49;5.00;99.90
52725;DHT22;38621;52.830;6.914;2023-04-15T02:48:15;5.00;99.90
52725;DHT22;38621;52.830;6.914;2023-04-15T02:50:45;5.00;99.90
52725;DHT22;38621;52.830;6.914;2023-04-15T02:53:11;4.90;99.90
52725;DHT22;38621;52.830;6.914;2023-04-15T02:55:37;4.90;99.90
52725;DHT22;38621;52.830;6.914;2023-04-15T02:58:03;5.00;99.90
52725;DHT22;38621;52.830;6.914;2023-04-15T03:00:29;4.80;99.90
52725;DHT22;38621;52.830;6.914;2023-04-15T03:03:01;4.90;99.90
52725;DHT22;38621;52.830;6.914;2023-04-15T03:05:27;4.80;99.90
52725;DHT22;38621;52.830;6.914;2023-04-15T03:07:53;4.80;99.90
52725;DHT22;38621;52.830;6.914;2023-04-15T03:10:19;4.80;99.90
52725;DHT22;38621;52.830;6.914;2023-04-15T03:12:45;4.80;99.90
52725;DHT22;38621;52.830;6.914;2023-04-15T03:15:11;5.10;99.90
52725;DHT22;38621;52.830;6.914;2023-04-15T03:17:37;4.70;99.90
52725;DHT22;38621;52.830;6.914;2023-04-15T03:20:03;4.70;99.90
52725;DHT22;38621;52.830;6.914;2023-04-15T03:22:32;4.70;99.90
52725;DHT22;38621;52.830;6.914;2023-04-15T03:24:58;4.60;99.90
52725;DHT22;38621;52.830;6.914;2023-04-15T03:27:24;4.60;99.90
52725;DHT22;38621;52.830;6.914;2023-04-15T03:29:50;4.60;99.90
52725;DHT22;38621;52.830;6.914;2023-04-15T03:32:16;4.50;99.90
52725;DHT22;38621;52.830;6.914;2023-04-15T03:34:42;4.50;99.90
52725;DHT22;38621;52.830;6.914;2023-04-15T03:37:08;4.50;99.90
52725;DHT22;38621;52.830;6.914;2023-04-15T03:39:34;4.50;99.90
52725;DHT22;38621;52.830;6.914;2023-04-15T03:42:00;4.40;99.90
52725;DHT22;38621;52.830;6.914;2023-04-15T03:44:26;4.50;99.90
52725;DHT22;38621;52.830;6.914;2023-04-15T03:46:52;4.30;99.90
52725;DHT22;38621;52.830;6.914;2023-04-15T03:49:18;4.40;99.90
52725;DHT22;38621;52.830;6.914;2023-04-15T03:51:45;4.30;99.90
52725;DHT22;38621;52.830;6.914;2023-04-15T03:54:11;4.30;99.90
52725;DHT22;38621;52.830;6.914;2023-04-15T03:56:38;4.60;99.90
52725;DHT22;38621;52.830;6.914;2023-04-15T03:59:04;4.30;99.90
52725;DHT22;38621;52.830;6.914;2023-04-15T04:01:30;4.30;99.90
52725;DHT22;38621;52.830;6.914;2023-04-15T04:03:56;4.30;99.90
52725;DHT22;38621;52.830;6.914;2023-04-15T04:06:21;4.30;99.90
52725;DHT22;38621;52.830;6.914;2023-04-15T04:08:47;4.20;99.90
52725;DHT22;38621;52.830;6.914;2023-04-15T04:11:13;4.40;99.90
52725;DHT22;38621;52.830;6.914;2023-04-15T04:13:39;4.10;99.90
52725;DHT22;38621;52.830;6.914;2023-04-15T04:16:05;4.50;99.90
52725;DHT22;38621;52.830;6.914;2023-04-15T04:18:31;4.20;99.90
52725;DHT22;38621;52.830;6.914;2023-04-15T04:20:57;4.20;99.90
52725;DHT22;38621;52.830;6.914;2023-04-15T04:23:23;4.30;99.90
52725;DHT22;38621;52.830;6.914;2023-04-15T04:25:48;4.60;99.90
52725;DHT22;38621;52.830;6.914;2023-04-15T04:28:14;4.10;99.90
52725;DHT22;38621;52.830;6.914;2023-04-15T04:30:40;4.20;99.90
52725;DHT22;38621;52.830;6.914;2023-04-15T04:33:08;4.10;99.90
52725;DHT22;38621;52.830;6.914;2023-04-15T04:35:34;4.30;99.90
52725;DHT22;38621;52.830;6.914;2023-04-15T04:38:02;4.20;99.90
52725;DHT22;38621;52.830;6.914;2023-04-15T04:40:28;4.20;99.90
52725;DHT22;38621;52.830;6.914;2023-04-15T04:42:54;4.50;99.90
52725;DHT22;38621;52.830;6.914;2023-04-15T04:45:20;4.20;99.90
52725;DHT22;38621;52.830;6.914;2023-04-15T04:47:46;4.40;99.90
52725;DHT22;38621;52.830;6.914;2023-04-15T04:50:12;4.30;99.90
52725;DHT22;38621;52.830;6.914;2023-04-15T04:52:38;4.30;99.90
52725;DHT22;38621;52.830;6.914;2023-04-15T04:55:04;4.40;99.90
52725;DHT22;38621;52.830;6.914;2023-04-15T04:57:30;4.30;99.90
52725;DHT22;38621;52.830;6.914;2023-04-15T04:59:55;4.50;99.90
52725;DHT22;38621;52.830;6.914;2023-04-15T05:02:22;4.50;99.90
52725;DHT22;38621;52.830;6.914;2023-04-15T05:04:47;4.50;99.90
52725;DHT22;38621;52.830;6.914;2023-04-15T05:07:14;4.50;99.90
52725;DHT22;38621;52.830;6.914;2023-04-15T05:09:40;4.50;99.90
52725;DHT22;38621;52.830;6.914;2023-04-15T05:12:06;4.50;99.90
52725;DHT22;38621;52.830;6.914;2023-04-15T05:14:33;4.60;99.90
52725;DHT22;38621;52.830;6.914;2023-04-15T05:16:59;4.60;99.90
52725;DHT22;38621;52.830;6.914;2023-04-15T05:19:24;4.60;99.90
52725;DHT22;38621;52.830;6.914;2023-04-15T05:21:50;4.60;99.90
52725;DHT22;38621;52.830;6.914;2023-04-15T05:24:16;4.50;99.90
52725;DHT22;38621;52.830;6.914;2023-04-15T05:26:42;4.60;99.90
52725;DHT22;38621;52.830;6.914;2023-04-15T05:29:08;4.60;99.90
52725;DHT22;38621;52.830;6.914;2023-04-15T05:31:34;4.60;99.90
52725;DHT22;38621;52.830;6.914;2023-04-15T05:34:00;4.70;99.90
52725;DHT22;38621;52.830;6.914;2023-04-15T05:36:26;4.70;99.90
52725;DHT22;38621;52.830;6.914;2023-04-15T05:38:53;4.70;99.90
52725;DHT22;38621;52.830;6.914;2023-04-15T05:41:18;4.90;99.90
52725;DHT22;38621;52.830;6.914;2023-04-15T05:43:44;4.80;99.90
52725;DHT22;38621;52.830;6.914;2023-04-15T05:46:10;4.80;99.90
52725;DHT22;38621;52.830;6.914;2023-04-15T05:48:35;4.90;99.90
52725;DHT22;38621;52.830;6.914;2023-04-15T05:51:01;5.00;99.90
52725;DHT22;38621;52.830;6.914;2023-04-15T05:53:27;5.10;99.90
52725;DHT22;38621;52.830;6.914;2023-04-15T05:55:52;5.00;99.90
52725;DHT22;38621;52.830;6.914;2023-04-15T05:58:18;5.00;99.90
52725;DHT22;38621;52.830;6.914;2023-04-15T06:00:44;5.10;99.90
52725;DHT22;38621;52.830;6.914;2023-04-15T06:03:10;5.10;99.90
52725;DHT22;38621;52.830;6.914;2023-04-15T06:05:36;5.10;99.90
52725;DHT22;38621;52.830;6.914;2023-04-15T06:08:02;5.40;99.90
52725;DHT22;38621;52.830;6.914;2023-04-15T06:10:27;5.30;99.90
52725;DHT22;38621;52.830;6.914;2023-04-15T06:12:53;5.40;99.90
52725;DHT22;38621;52.830;6.914;2023-04-15T06:15:19;5.50;99.90
52725;DHT22;38621;52.830;6.914;2023-04-15T06:17:45;5.50;99.90
52725;DHT22;38621;52.830;6.914;2023-04-15T06:20:11;5.60;99.90
52725;DHT22;38621;52.830;6.914;2023-04-15T06:22:37;5.70;99.90
52725;DHT22;38621;52.830;6.914;2023-04-15T06:25:04;5.80;99.90
52725;DHT22;38621;52.830;6.914;2023-04-15T06:27:30;5.90;99.90
52725;DHT22;38621;52.830;6.914;2023-04-15T06:29:55;6.00;99.90
52725;DHT22;38621;52.830;6.914;2023-04-15T06:32:21;6.10;99.90
52725;DHT22;38621;52.830;6.914;2023-04-15T06:34:46;6.20;99.90
52725;DHT22;38621;52.830;6.914;2023-04-15T06:37:12;6.30;99.90
52725;DHT22;38621;52.830;6.914;2023-04-15T06:39:41;6.30;99.90
52725;DHT22;38621;52.830;6.914;2023-04-15T06:42:07;6.40;99.90
52725;DHT22;38621;52.830;6.914;2023-04-15T06:44:33;6.50;99.90
52725;DHT22;38621;52.830;6.914;2023-04-15T06:46:59;6.50;99.90
52725;DHT22;38621;52.830;6.914;2023-04-15T06:49:25;6.60;99.90
52725;DHT22;38621;52.830;6.914;2023-04-15T06:51:51;6.70;99.90
52725;DHT22;38621;52.830;6.914;2023-04-15T06:54:17;6.80;99.90
52725;DHT22;38621;52.830;6.914;2023-04-15T06:56:43;6.80;99.90
52725;DHT22;38621;52.830;6.914;2023-04-15T06:59:09;6.90;99.90
52725;DHT22;38621;52.830;6.914;2023-04-15T07:01:34;6.90;99.90
52725;DHT22;38621;52.830;6.914;2023-04-15T07:04:00;6.90;99.90
52725;DHT22;38621;52.830;6.914;2023-04-15T07:06:26;7.10;99.90
52725;DHT22;38621;52.830;6.914;2023-04-15T07:08:52;7.10;99.90
52725;DHT22;38621;52.830;6.914;2023-04-15T07:11:19;7.20;99.90
52725;DHT22;38621;52.830;6.914;2023-04-15T07:13:45;7.30;99.90
52725;DHT22;38621;52.830;6.914;2023-04-15T07:16:11;7.40;99.90
52725;DHT22;38621;52.830;6.914;2023-04-15T07:18:36;7.50;99.90
52725;DHT22;38621;52.830;6.914;2023-04-15T07:21:02;7.50;99.90
52725;DHT22;38621;52.830;6.914;2023-04-15T07:23:28;7.70;99.90
52725;DHT22;38621;52.830;6.914;2023-04-15T07:25:54;7.80;99.90
52725;DHT22;38621;52.830;6.914;2023-04-15T07:28:19;7.90;99.90
52725;DHT22;38621;52.830;6.914;2023-04-15T07:30:45;7.90;99.90
52725;DHT22;38621;52.830;6.914;2023-04-15T07:33:11;8.00;99.90
52725;DHT22;38621;52.830;6.914;2023-04-15T07:35:37;8.10;99.90
52725;DHT22;38621;52.830;6.914;2023-04-15T07:38:02;8.10;99.90
52725;DHT22;38621;52.830;6.914;2023-04-15T07:40:28;8.10;99.90
52725;DHT22;38621;52.830;6.914;2023-04-15T07:42:55;8.20;99.90
52725;DHT22;38621;52.830;6.914;2023-04-15T07:45:22;8.20;99.90
52725;DHT22;38621;52.830;6.914;2023-04-15T07:47:48;8.30;99.90
52725;DHT22;38621;52.830;6.914;2023-04-15T07:50:15;8.40;99.90
52725;DHT22;38621;52.830;6.914;2023-04-15T07:52:42;8.50;99.90
52725;DHT22;38621;52.830;6.914;2023-04-15T07:55:08;8.60;99.90
52725;DHT22;38621;52.830;6.914;2023-04-15T07:57:35;8.70;99.90
52725;DHT22;38621;52.830;6.914;2023-04-15T08:00:02;8.80;99.90
52725;DHT22;38621;52.830;6.914;2023-04-15T08:02:31;8.90;99.90
52725;DHT22;38621;52.830;6.914;2023-04-15T08:04:57;9.00;99.90
52725;DHT22;38621;52.830;6.914;2023-04-15T08:07:23;9.10;99.90
52725;DHT22;38621;52.830;6.914;2023-04-15T08:09:49;9.10;99.90
52725;DHT22;38621;52.830;6.914;2023-04-15T08:12:15;9.20;99.90
52725;DHT22;38621;52.830;6.914;2023-04-15T08:14:41;9.20;99.90
52725;DHT22;38621;52.830;6.914;2023-04-15T08:17:07;9.20;99.90
52725;DHT22;38621;52.830;6.914;2023-04-15T08:19:33;9.30;99.90
52725;DHT22;38621;52.830;6.914;2023-04-15T08:21:58;9.30;99.90
52725;DHT22;38621;52.830;6.914;2023-04-15T08:24:25;9.40;99.90
52725;DHT22;38621;52.830;6.914;2023-04-15T08:26:51;9.40;99.90
52725;DHT22;38621;52.830;6.914;2023-04-15T08:29:17;9.40;99.90
52725;DHT22;38621;52.830;6.914;2023-04-15T08:31:43;9.50;99.90
52725;DHT22;38621;52.830;6.914;2023-04-15T08:34:13;9.60;99.90
52725;DHT22;38621;52.830;6.914;2023-04-15T08:36:39;9.60;99.90
52725;DHT22;38621;52.830;6.914;2023-04-15T08:39:05;9.70;99.90
52725;DHT22;38621;52.830;6.914;2023-04-15T08:41:46;9.80;99.90
52725;DHT22;38621;52.830;6.914;2023-04-15T08:44:13;9.90;99.90
52725;DHT22;38621;52.830;6.914;2023-04-15T08:46:40;9.90;99.90
52725;DHT22;38621;52.830;6.914;2023-04-15T08:49:09;10.00;99.90
52725;DHT22;38621;52.830;6.914;2023-04-15T08:51:36;10.00;99.90
52725;DHT22;38621;52.830;6.914;2023-04-15T08:54:03;9.90;99.90
52725;DHT22;38621;52.830;6.914;2023-04-15T08:56:30;9.80;99.90
52725;DHT22;38621;52.830;6.914;2023-04-15T08:58:58;9.70;99.90
52725;DHT22;38621;52.830;6.914;2023-04-15T09:01:24;9.60;99.90
52725;DHT22;38621;52.830;6.914;2023-04-15T09:03:51;9.50;99.90
52725;DHT22;38621;52.830;6.914;2023-04-15T09:06:20;9.50;99.90
52725;DHT22;38621;52.830;6.914;2023-04-15T09:08:46;9.60;99.90
52725;DHT22;38621;52.830;6.914;2023-04-15T09:11:12;9.60;99.90
52725;DHT22;38621;52.830;6.914;2023-04-15T09:13:38;9.70;99.90
52725;DHT22;38621;52.830;6.914;2023-04-15T09:16:05;9.70;99.90
52725;DHT22;38621;52.830;6.914;2023-04-15T09:18:33;9.70;99.90
52725;DHT22;38621;52.830;6.914;2023-04-15T09:21:06;9.60;99.90
52725;DHT22;38621;52.830;6.914;2023-04-15T09:23:34;9.60;99.90
52725;DHT22;38621;52.830;6.914;2023-04-15T09:26:01;9.60;99.90
52725;DHT22;38621;52.830;6.914;2023-04-15T09:28:27;9.50;99.90
52725;DHT22;38621;52.830;6.914;2023-04-15T09:30:57;9.50;99.90
52725;DHT22;38621;52.830;6.914;2023-04-15T09:33:24;9.60;99.90
52725;DHT22;38621;52.830;6.914;2023-04-15T09:35:59;9.70;99.90
52725;DHT22;38621;52.830;6.914;2023-04-15T09:38:26;9.90;99.90
52725;DHT22;38621;52.830;6.914;2023-04-15T09:40:52;10.10;99.90
52725;DHT22;38621;52.830;6.914;2023-04-15T09:43:17;10.20;99.90
52725;DHT22;38621;52.830;6.914;2023-04-15T09:45:52;10.30;99.90
52725;DHT22;38621;52.830;6.914;2023-04-15T09:48:20;10.40;99.90
52725;DHT22;38621;52.830;6.914;2023-04-15T09:50:49;10.30;99.90
52725;DHT22;38621;52.830;6.914;2023-04-15T09:53:22;10.20;99.90
52725;DHT22;38621;52.830;6.914;2023-04-15T09:58:23;10.10;99.90
52725;DHT22;38621;52.830;6.914;2023-04-15T10:00:51;10.00;99.90
52725;DHT22;38621;52.830;6.914;2023-04-15T10:05:48;9.90;99.90
52725;DHT22;38621;52.830;6.914;2023-04-15T10:08:19;9.80;99.90
52725;DHT22;38621;52.830;6.914;2023-04-15T10:10:46;9.70;99.90
52725;DHT22;38621;52.830;6.914;2023-04-15T10:13:15;9.70;99.90
52725;DHT22;38621;52.830;6.914;2023-04-15T10:15:43;9.70;99.90
52725;DHT22;38621;52.830;6.914;2023-04-15T10:18:14;9.70;99.90
52725;DHT22;38621;52.830;6.914;2023-04-15T10:20:41;9.70;99.90
52725;DHT22;38621;52.830;6.914;2023-04-15T10:23:08;9.80;99.90
52725;DHT22;38621;52.830;6.914;2023-04-15T10:25:34;9.80;99.90
52725;DHT22;38621;52.830;6.914;2023-04-15T10:28:00;9.90;99.90
52725;DHT22;38621;52.830;6.914;2023-04-15T10:30:27;9.90;99.90
52725;DHT22;38621;52.830;6.914;2023-04-15T10:32:53;9.80;99.90
52725;DHT22;38621;52.830;6.914;2023-04-15T10:35:20;9.90;99.90
52725;DHT22;38621;52.830;6.914;2023-04-15T10:37:47;9.90;99.90
52725;DHT22;38621;52.830;6.914;2023-04-15T10:40:25;9.90;99.90
52725;DHT22;38621;52.830;6.914;2023-04-15T10:43:02;9.90;99.90
52725;DHT22;38621;52.830;6.914;2023-04-15T10:45:33;9.90;99.90
52725;DHT22;38621;52.830;6.914;2023-04-15T10:48:03;9.90;99.90
52725;DHT22;38621;52.830;6.914;2023-04-15T10:50:30;10.00;99.90
52725;DHT22;38621;52.830;6.914;2023-04-15T10:52:57;10.00;99.90
52725;DHT22;38621;52.830;6.914;2023-04-15T10:55:29;10.00;99.90
52725;DHT22;38621;52.830;6.914;2023-04-15T10:58:00;10.00;99.90
52725;DHT22;38621;52.830;6.914;2023-04-15T11:00:28;9.90;99.90
52725;DHT22;38621;52.830;6.914;2023-04-15T11:02:58;9.90;99.90
52725;DHT22;38621;52.830;6.914;2023-04-15T11:08:11;9.80;99.90
52725;DHT22;38621;52.830;6.914;2023-04-15T11:13:13;9.80;99.90
52725;DHT22;38621;52.830;6.914;2023-04-15T11:15:44;9.90;99.90
52725;DHT22;38621;52.830;6.914;2023-04-15T11:18:22;10.00;99.90
52725;DHT22;38621;52.830;6.914;2023-04-15T11:20:51;10.00;99.90
52725;DHT22;38621;52.830;6.914;2023-04-15T11:23:26;9.90;99.90
52725;DHT22;38621;52.830;6.914;2023-04-15T11:25:54;9.80;99.90
52725;DHT22;38621;52.830;6.914;2023-04-15T11:28:27;9.80;99.90
52725;DHT22;38621;52.830;6.914;2023-04-15T11:30:54;9.80;99.90
52725;DHT22;38621;52.830;6.914;2023-04-15T11:33:20;9.80;99.90
52725;DHT22;38621;52.830;6.914;2023-04-15T11:35:46;9.80;99.90
52725;DHT22;38621;52.830;6.914;2023-04-15T11:38:13;9.80;99.90
52725;DHT22;38621;52.830;6.914;2023-04-15T11:40:40;9.90;99.90
52725;DHT22;38621;52.830;6.914;2023-04-15T11:45:36;9.90;99.90
52725;DHT22;38621;52.830;6.914;2023-04-15T11:48:10;9.90;99.90
52725;DHT22;38621;52.830;6.914;2023-04-15T11:50:37;10.00;99.90
52725;DHT22;38621;52.830;6.914;2023-04-15T11:53:09;10.00;99.90
52725;DHT22;38621;52.830;6.914;2023-04-15T11:58:11;10.00;99.90
52725;DHT22;38621;52.830;6.914;2023-04-15T12:00:38;10.00;99.90
52725;DHT22;38621;52.830;6.914;2023-04-15T12:06:06;10.10;99.90
52725;DHT22;38621;52.830;6.914;2023-04-15T12:11:26;10.00;99.90
52725;DHT22;38621;52.830;6.914;2023-04-15T12:14:04;10.00;99.90
52725;DHT22;38621;52.830;6.914;2023-04-15T12:16:32;10.10;99.90
52725;DHT22;38621;52.830;6.914;2023-04-15T12:18:59;10.10;99.90
52725;DHT22;38621;52.830;6.914;2023-04-15T12:21:27;10.20;99.90
52725;DHT22;38621;52.830;6.914;2023-04-15T12:23:55;10.30;99.90
52725;DHT22;38621;52.830;6.914;2023-04-15T12:26:48;10.30;99.90
52725;DHT22;38621;52.830;6.914;2023-04-15T12:29:15;10.20;99.90
52725;DHT22;38621;52.830;6.914;2023-04-15T12:31:53;10.10;99.90
52725;DHT22;38621;52.830;6.914;2023-04-15T12:34:36;10.00;99.90
52725;DHT22;38621;52.830;6.914;2023-04-15T12:37:04;10.00;99.90
52725;DHT22;38621;52.830;6.914;2023-04-15T12:39:41;10.00;99.90
52725;DHT22;38621;52.830;6.914;2023-04-15T12:42:07;10.00;99.90
52725;DHT22;38621;52.830;6.914;2023-04-15T12:44:34;10.00;99.90
52725;DHT22;38621;52.830;6.914;2023-04-15T12:47:00;9.90;99.90
52725;DHT22;38621;52.830;6.914;2023-04-15T12:49:26;9.80;99.90
52725;DHT22;38621;52.830;6.914;2023-04-15T12:51:54;9.70;99.90
52725;DHT22;38621;52.830;6.914;2023-04-15T12:54:20;9.70;99.90
52725;DHT22;38621;52.830;6.914;2023-04-15T12:56:47;9.60;99.90
52725;DHT22;38621;52.830;6.914;2023-04-15T12:59:13;9.50;99.90
52725;DHT22;38621;52.830;6.914;2023-04-15T13:01:39;9.40;99.90
52725;DHT22;38621;52.830;6.914;2023-04-15T13:04:06;9.30;99.90
52725;DHT22;38621;52.830;6.914;2023-04-15T13:06:31;9.20;99.90
52725;DHT22;38621;52.830;6.914;2023-04-15T13:09:01;9.10;99.90
52725;DHT22;38621;52.830;6.914;2023-04-15T13:11:28;9.10;99.90
52725;DHT22;38621;52.830;6.914;2023-04-15T13:14:03;9.10;99.90
52725;DHT22;38621;52.830;6.914;2023-04-15T13:16:30;9.00;99.90
52725;DHT22;38621;52.830;6.914;2023-04-15T13:18:57;9.10;99.90
52725;DHT22;38621;52.830;6.914;2023-04-15T13:21:23;9.00;99.90
52725;DHT22;38621;52.830;6.914;2023-04-15T13:23:49;9.10;99.90
52725;DHT22;38621;52.830;6.914;2023-04-15T13:26:16;9.10;99.90
52725;DHT22;38621;52.830;6.914;2023-04-15T13:28:42;9.10;99.90
52725;DHT22;38621;52.830;6.914;2023-04-15T13:31:08;9.10;99.90
52725;DHT22;38621;52.830;6.914;2023-04-15T13:33:33;9.10;99.90
52725;DHT22;38621;52.830;6.914;2023-04-15T13:35:59;9.10;99.90
52725;DHT22;38621;52.830;6.914;2023-04-15T13:38:25;9.10;99.90
52725;DHT22;38621;52.830;6.914;2023-04-15T13:40:51;9.10;99.90
52725;DHT22;38621;52.830;6.914;2023-04-15T13:43:16;9.10;99.90
52725;DHT22;38621;52.830;6.914;2023-04-15T13:45:43;9.20;99.90
52725;DHT22;38621;52.830;6.914;2023-04-15T13:48:08;9.20;99.90
52725;DHT22;38621;52.830;6.914;2023-04-15T13:50:34;9.20;99.90
52725;DHT22;38621;52.830;6.914;2023-04-15T13:53:00;9.20;99.90
52725;DHT22;38621;52.830;6.914;2023-04-15T13:55:26;9.20;99.90
52725;DHT22;38621;52.830;6.914;2023-04-15T13:57:52;9.30;99.90
52725;DHT22;38621;52.830;6.914;2023-04-15T14:00:17;9.20;99.90
52725;DHT22;38621;52.830;6.914;2023-04-15T14:02:43;9.10;99.90
52725;DHT22;38621;52.830;6.914;2023-04-15T14:05:09;9.10;99.90
52725;DHT22;38621;52.830;6.914;2023-04-15T14:07:35;9.00;99.90
52725;DHT22;38621;52.830;6.914;2023-04-15T14:10:01;9.00;99.90
52725;DHT22;38621;52.830;6.914;2023-04-15T14:12:28;9.00;99.90
52725;DHT22;38621;52.830;6.914;2023-04-15T14:14:53;9.00;99.90
52725;DHT22;38621;52.830;6.914;2023-04-15T14:17:19;8.90;99.90
52725;DHT22;38621;52.830;6.914;2023-04-15T14:19:45;8.90;99.90
52725;DHT22;38621;52.830;6.914;2023-04-15T14:22:11;8.90;99.90
52725;DHT22;38621;52.830;6.914;2023-04-15T14:24:37;8.90;99.90
52725;DHT22;38621;52.830;6.914;2023-04-15T14:27:02;8.90;99.90
52725;DHT22;38621;52.830;6.914;2023-04-15T14:29:28;8.90;99.90
52725;DHT22;38621;52.830;6.914;2023-04-15T14:31:54;8.90;99.90
52725;DHT22;38621;52.830;6.914;2023-04-15T14:34:21;8.80;99.90
52725;DHT22;38621;52.830;6.914;2023-04-15T14:36:50;8.80;99.90
52725;DHT22;38621;52.830;6.914;2023-04-15T14:39:15;8.80;99.90
52725;DHT22;38621;52.830;6.914;2023-04-15T14:41:41;8.80;99.90
52725;DHT22;38621;52.830;6.914;2023-04-15T14:44:07;8.80;99.90
52725;DHT22;38621;52.830;6.914;2023-04-15T14:46:34;8.80;99.90
52725;DHT22;38621;52.830;6.914;2023-04-15T14:49:00;8.70;99.90
52725;DHT22;38621;52.830;6.914;2023-04-15T14:51:26;8.80;99.90
52725;DHT22;38621;52.830;6.914;2023-04-15T14:53:51;8.80;99.90
52725;DHT22;38621;52.830;6.914;2023-04-15T14:56:17;8.70;99.90
52725;DHT22;38621;52.830;6.914;2023-04-15T14:58:43;8.70;99.90
52725;DHT22;38621;52.830;6.914;2023-04-15T15:01:08;8.70;99.90
52725;DHT22;38621;52.830;6.914;2023-04-15T15:03:34;8.70;99.90
52725;DHT22;38621;52.830;6.914;2023-04-15T15:06:00;8.70;99.90
52725;DHT22;38621;52.830;6.914;2023-04-15T15:08:26;8.70;99.90
52725;DHT22;38621;52.830;6.914;2023-04-15T15:10:52;8.70;99.90
52725;DHT22;38621;52.830;6.914;2023-04-15T15:13:18;8.60;99.90
52725;DHT22;38621;52.830;6.914;2023-04-15T15:15:44;8.60;99.90
52725;DHT22;38621;52.830;6.914;2023-04-15T15:18:10;8.70;99.90
52725;DHT22;38621;52.830;6.914;2023-04-15T15:20:35;8.70;99.90
52725;DHT22;38621;52.830;6.914;2023-04-15T15:23:01;8.60;99.90
52725;DHT22;38621;52.830;6.914;2023-04-15T15:25:27;8.60;99.90
52725;DHT22;38621;52.830;6.914;2023-04-15T15:27:53;8.70;99.90
52725;DHT22;38621;52.830;6.914;2023-04-15T15:30:19;8.60;99.90
52725;DHT22;38621;52.830;6.914;2023-04-15T15:32:45;8.60;99.90
52725;DHT22;38621;52.830;6.914;2023-04-15T15:35:11;8.60;99.90
52725;DHT22;38621;52.830;6.914;2023-04-15T15:37:36;8.60;99.90
52725;DHT22;38621;52.830;6.914;2023-04-15T15:40:03;8.60;99.90
52725;DHT22;38621;52.830;6.914;2023-04-15T15:42:32;8.60;99.90
52725;DHT22;38621;52.830;6.914;2023-04-15T15:44:58;8.60;99.90
52725;DHT22;38621;52.830;6.914;2023-04-15T15:47:24;8.50;99.90
52725;DHT22;38621;52.830;6.914;2023-04-15T15:49:52;8.50;99.90
52725;DHT22;38621;52.830;6.914;2023-04-15T15:52:17;8.50;99.90
52725;DHT22;38621;52.830;6.914;2023-04-15T15:54:43;8.50;99.90
52725;DHT22;38621;52.830;6.914;2023-04-15T15:57:09;8.50;99.90
52725;DHT22;38621;52.830;6.914;2023-04-15T15:59:35;8.50;99.90
52725;DHT22;38621;52.830;6.914;2023-04-15T16:02:08;8.50;99.90